Tiempo atmosférico en la estación meteorológica de Barx, València/Valencia (340 m.)



Fecha
DESCASC
Temp. máxima en grados centígrados (hora)
DESCASC
Temp. mínima en grados centígrados (hora)
DESCASC
Temp. media en grados centígrados
DESCASC
Racha de viento máxima en m/sg (hora)
DESCASC
Velocidad máxima media en intervalos de 10 minutos(hora)
DESCASC
Precipitaciones diarias en mm
DESCASC
Precipitaciones de 00:00 a 06:00 en mm
DESCASC
Precipitaciones de 06:00 a 12:00 en mm
DESCASC
Precipitaciones de 12:00 a 18:00 en mm
DESCASC
Precipitaciones de 18:00 a 24:00 en mm
DESCASC
18-02-2018 12.5 (15:50) 5.5 (23:50) 9 6.94 (17:10) 4.72 (17:00) 0 0 0 0 0
17-02-2018 18.3 (13:20) 7.4 (01:20) 12.8 6.39 (09:50) 3.61 (15:20) 0 0 0 0 0
16-02-2018 17.2 (13:40) 8.2 (08:50) 12.7 4.44 (13:00) 2.78 (15:50) 0 0 0 0 0
15-02-2018 21.5 (15:20) 9 (00:00) 15.3 7.5 (08:00) 3.61 (09:20) 0 0 0 0 0
14-02-2018 15.4 (14:10) 9.3 (00:00) 12.3 10 (15:50) 5.83 (15:00) 0 0 0 0 0
13-02-2018 14 (15:00) 1.3 (00:00) 7.6 10.28 (17:20) 5 (14:20) 0 0 0 0 0
12-02-2018 13.2 (00:10) 3.1 (00:00) 8.1 8.06 (03:50) 3.89 (17:30) 7.8 0 0 7.8 0
11-02-2018 17.5 (16:10) 1.8 (00:00) 9.6 9.44 (16:00) 4.72 (16:00) 0 0 0 0 0
10-02-2018 9.9 (12:20) 3.1 (00:00) 6.5 12.5 (13:10) 6.39 (13:20) 0 0 0 0 0
09-02-2018 11.2 (17:00) -0.3 (00:00) 5.4 6.39 (20:20) 3.06 (14:40) 0 0 0 0 0
08-02-2018 10.8 (15:20) -0.7 (-00:0) 5.1 6.67 (14:20) 3.89 (19:50) 0 0 0 0 0
07-02-2018 9 (16:50) 2.7 (00:00) 5.9 4.17 (01:00) 2.22 (00:20) 1.6 1.6 0 0 0
06-02-2018 5.1 (10:50) 3.1 (00:00) 4.1 5.56 (19:10) 3.33 (14:10) 8.8 2.4 1 1.8 3.6
05-02-2018 8.8 (14:00) 3.9 (00:00) 6.4 5.56 (19:00) 2.22 (19:00) 13.8 2.6 0.2 0 11
04-02-2018 9.4 (12:50) 5.4 (00:00) 7.4 10.28 (02:20) 5 (02:30) 0 0 0 0 0
03-02-2018 12.4 (16:20) -0.5 (-00:0) 5.9 10.28 (13:10) 6.39 (13:20) 0 0 0 0 0
02-02-2018 7 (17:20) 2.6 (00:00) 4.8 12.22 (20:20) 5.56 (20:20) 12.8 7.8 4.6 0.4 0
01-02-2018 14.4 (12:20) 5.1 (00:00) 9.7 9.72 (15:20) 5.56 (15:20) 24 0 0 0 24
31-01-2018 14.7 (15:50) 4.4 (00:00) 9.5 6.94 (17:10) 4.17 (17:10) 0 0 0 0 0
30-01-2018 13 (14:30) 3.6 (00:00) 8.3 6.39 (20:00) 4.17 (19:40) 0.2 0.2 0 0 0
29-01-2018 13.9 (16:20) 5.6 (00:00) 9.7 6.11 (00:40) 2.22 (02:10) 0 0 0 0 0
28-01-2018 11.6 (15:20) 7.3 (00:00) 9.5 18.89 (01:00) 9.72 (00:40) 100.6 31.6 41.4 27.6 0
27-01-2018 11 (14:00) 3.2 (00:00) 7.1 16.39 (23:40) 9.17 (23:40) 15.2 0 0 0 15.2
26-01-2018 11 (00:50) 5.9 (00:00) 8.5 13.33 (21:10) 7.22 (21:10) 3.2 0 2.4 0.8 0
25-01-2018 17 (15:00) 3.1 (00:00) 10 5.56 (21:30) 2.5 (16:30) 0 0 0 0 0
24-01-2018 18 (15:30) 4.4 (00:00) 11.2 5 (15:30) 2.5 (13:00) 0 0 0 0 0
23-01-2018 19.7 (15:10) 5.3 (00:00) 12.5 7.5 (16:10) 4.44 (16:40) 0 0 0 0 0
22-01-2018 23.8 (15:10) 12.1 (00:00) 17.9 8.33 (10:00) 3.33 (04:10) 0 0 0 0 0

Gráficas

Temp. máximas Temp. mínimas Temp. medias Precipitaciones Rachas de viento máximas Velocidades máximas media en intervalos de 10 minutos

Datos horarios

Fecha y hora oficial Temperatura (ºC) Velocidad del viento (km/h) Dirección del viento Racha (km/h) Dirección de racha Precipitación (mm) Presión (hPa) Tendencia (hPa) Humedad (%)
2018-02-20 23:00:00 11.2 8 Norte 20 Norte 0 -- -- 54
2018-02-20 22:00:00 11.5 5 Norte 13 Norte 0 -- -- 56
2018-02-20 21:00:00 12.7 2 Nordeste 26 Noroeste 0 -- -- 57
2018-02-20 20:00:00 14 19 Norte 32 Norte 0 -- -- 49
2018-02-20 19:00:00 15 15 Norte 28 Norte 0 -- -- 47
2018-02-20 18:00:00 16.4 14 Norte 28 Nordeste 0 -- -- 46
2018-02-20 17:00:00 17.8 13 Norte 23 Norte 0 -- -- 44
2018-02-20 16:00:00 18.7 10 Norte 23 Norte 0 -- -- 42
2018-02-20 15:00:00 18.9 10 Oeste 35 Noroeste 0 -- -- 43
2018-02-20 14:00:00 17.8 10 Noroeste 27 Noroeste 0 -- -- 47
2018-02-20 13:00:00 16.6 10 Norte 21 Norte 0 -- -- 49
2018-02-20 12:00:00 15.5 9 Oeste 18 Oeste 0 -- -- 54
2018-02-20 11:00:00 13.7 9 Noroeste 19 Oeste 0 -- -- 60
2018-02-20 10:00:00 12.1 8 Noroeste 18 Noroeste 0 -- -- 64
2018-02-20 09:00:00 9.7 4 Nordeste 16 Noroeste 0 -- -- 73
2018-02-20 08:00:00 8.9 4 Nordeste 11 Norte 0 -- -- 76
2018-02-20 07:00:00 8.1 0 Calma 8 Norte 0 -- -- 77
2018-02-20 06:00:00 8.6 3 Nordeste 9 Noroeste 0 -- -- 76
2018-02-20 05:00:00 7.5 0 Calma 6 Este 0 -- -- 81
2018-02-20 04:00:00 7.7 2 Este 6 Nordeste 0 -- -- 81
2018-02-20 03:00:00 8.5 3 Nordeste 8 Norte 0 -- -- 80
2018-02-20 02:00:00 10.2 4 Nordeste 9 Nordeste 0 -- -- 77
2018-02-20 01:00:00 10.4 2 Nordeste 7 Este 0 -- -- 77
2018-02-20 00:00:00 8.6 0 Calma 8 Este 0 -- -- 85
2018-02-19 23:00:00 8.7 2 Nordeste 6 Nordeste 0 -- -- 83
2018-02-19 22:00:00 10.2 3 Noroeste 11 Noroeste 0 -- -- 80
2018-02-19 21:00:00 10.6 4 Sur 9 Sur 0 -- -- 79
2018-02-19 20:00:00 10.1 9 Sur 15 Sur 0 -- -- 81
2018-02-19 19:00:00 10.6 9 Sur 22 Sur 0 -- -- 78
2018-02-19 18:00:00 13.4 12 Sur 20 Sudeste 0 -- -- 66
2018-02-19 17:00:00 16 12 Sudeste 20 Sur 0 -- -- 57
2018-02-19 16:00:00 17 9 Sur 15 Sur 0 -- -- 52
2018-02-19 15:00:00 16.3 3 Noroeste 14 Noroeste 0 -- -- 45
2018-02-19 14:00:00 16.8 5 Sudoeste 12 Sudoeste 0 -- -- 46
2018-02-19 13:00:00 16 5 Sudeste 10 Oeste 0 -- -- 59
2018-02-19 12:00:00 13.8 9 Oeste 13 Oeste 0 -- -- 63
2018-02-19 11:00:00 12.7 4 Oeste 11 Oeste 0 -- -- 73
2018-02-19 10:00:00 9.9 4 Noroeste 10 Noroeste 0 -- -- 89
2018-02-19 09:00:00 5.8 0 Calma 5 Sur 0 -- -- 100
2018-02-19 08:00:00 5.1 3 Sur 6 Sur 0 -- -- 100
2018-02-19 07:00:00 5.7 0 Calma 6 Sudeste 0 -- -- 100
2018-02-19 06:00:00 4.9 2 Sudeste 5 Sudeste 0 -- -- 99
2018-02-19 05:00:00 5.8 2 Sudeste 6 Norte 0 -- -- 100
2018-02-19 04:00:00 5.5 4 Sur 6 Sudeste 0 -- -- 99
2018-02-19 03:00:00 6 0 Calma 5 Sur 0 -- -- 99
2018-02-19 02:00:00 6.3 0 Calma 5 Nordeste 0 -- -- 98
2018-02-19 01:00:00 5.8 0 Calma 5 Sur 0 -- -- 98
2018-02-19 00:00:00 5.5 0 Calma 4 Nordeste 0 -- -- 97
2018-02-18 23:00:00 6.2 3 Sudeste 6 Sudeste 0 -- -- 95
2018-02-18 22:00:00 7.1 3 Sur 7 Sur 0 -- -- 93
2018-02-18 21:00:00 7.8 5 Sudeste 8 Sur 0 -- -- 95
2018-02-18 20:00:00 8 4 Sudeste 15 Sudoeste 0 -- -- 95
2018-02-18 19:00:00 8.8 12 Sur 23 Sur 0 -- -- 93
2018-02-18 18:00:00 10.2 13 Sur 25 Sur 0 -- -- 89
2018-02-18 17:00:00 11.6 17 Sur 25 Sur 0 -- -- 83
2018-02-18 16:00:00 12.5 14 Sur 24 Sur 0 -- -- 79
2018-02-18 15:00:00 11 11 Sur 19 Sur 0 -- -- 87
2018-02-18 14:00:00 11.2 6 Sudeste 14 Sudeste 0 -- -- 87
2018-02-18 13:00:00 10.4 3 Norte 11 Sur 0 -- -- 89
2018-02-18 12:00:00 10.6 3 Norte 11 Sur 0 -- -- 88
2018-02-18 11:00:00 9.9 2 Oeste 12 Sudeste 0 -- -- 88
2018-02-18 10:00:00 9.1 5 Sudeste 10 Este 0 -- -- 89
2018-02-18 09:00:00 8.5 3 Sudoeste 12 Nordeste 0 -- -- 93
2018-02-18 08:00:00 9 3 Norte 13 Este 0 -- -- 90
2018-02-18 07:00:00 9.3 8 Sudeste 15 Sudeste 0 -- -- 94
2018-02-18 06:00:00 9.8 6 Norte 20 Nordeste 0 -- -- 94
2018-02-18 05:00:00 9.9 6 Norte 18 Norte 0 -- -- 92
2018-02-18 04:00:00 10.1 0 Calma 14 Nordeste 0 -- -- 89
2018-02-18 03:00:00 10.2 2 Oeste 5 Noroeste 0 -- -- 92
2018-02-18 02:00:00 10.3 2 Oeste 9 Noroeste 0 -- -- 94
2018-02-18 01:00:00 10.8 3 Norte 8 Nordeste 0 -- -- 91
2018-02-18 00:00:00 11.2 3 Noroeste 14 Sur 0 -- -- 83
2018-02-17 23:00:00 11.6 4 Sudeste 18 Sudeste 0 -- -- 78
2018-02-17 22:00:00 12 9 Este 22 Este 0 -- -- 80
2018-02-17 21:00:00 13.2 6 Este 21 Este 0 -- -- 71
2018-02-17 20:00:00 13.5 6 Este 16 Sur 0 -- -- 67
2018-02-17 19:00:00 14.3 4 Sudeste 19 Sur 0 -- -- 60
2018-02-17 18:00:00 15.4 3 Noroeste 18 Nordeste 0 -- -- 64
2018-02-17 17:00:00 17.1 7 Este 19 Sudeste 0 -- -- 59
2018-02-17 16:00:00 17.6 8 Norte 21 Nordeste 0 -- -- 58
2018-02-17 15:00:00 18.2 12 Norte 19 Nordeste 0 -- -- 55
2018-02-17 14:00:00 17.9 8 Nordeste 19 Norte 0 -- -- 56
2018-02-17 13:00:00 18.1 8 Oeste 18 Oeste 0 -- -- 55
2018-02-17 12:00:00 16 9 Noroeste 20 Noroeste 0 -- -- 63
2018-02-17 11:00:00 14.8 8 Noroeste 20 Oeste 0 -- -- 67
2018-02-17 10:00:00 13.5 8 Sudoeste 23 Sudoeste 0 -- -- 73
2018-02-17 09:00:00 10.3 7 Sudoeste 16 Sur 0 -- -- 85
2018-02-17 08:00:00 9.3 2 Nordeste 13 Noroeste 0 -- -- 88
2018-02-17 07:00:00 9.3 3 Nordeste 11 Este 0 -- -- 90
2018-02-17 06:00:00 9.3 2 Sur 8 Este 0 -- -- 91
2018-02-17 05:00:00 9.6 3 Norte 6 Este 0 -- -- 91
2018-02-17 04:00:00 9.9 0 Calma 11 Nordeste 0 -- -- 88
2018-02-17 03:00:00 8.3 3 Noroeste 8 Noroeste 0 -- -- 95
2018-02-17 02:00:00 8.6 0 Calma 6 Nordeste 0 -- -- 88
2018-02-17 01:00:00 7.8 0 Calma 5 Sudoeste 0 -- -- 91
2018-02-17 00:00:00 10.4 3 Nordeste 6 Nordeste 0 -- -- 92
2018-02-16 23:00:00 9.9 2 Nordeste 6 Noroeste 0 -- -- 89
2018-02-16 22:00:00 10.9 3 Sur 6 Sudeste 0 -- -- 87
2018-02-16 21:00:00 11.4 4 Sur 6 Sur 0 -- -- 87
2018-02-16 20:00:00 12 4 Sur 7 Sur 0 -- -- 84
2018-02-16 19:00:00 12.7 3 Sudeste 8 Nordeste 0 -- -- 81
2018-02-16 18:00:00 15.1 6 Norte 14 Sudeste 0 -- -- 73
2018-02-16 17:00:00 15.1 2 Noroeste 15 Norte 0 -- -- 67
2018-02-16 16:00:00 16 9 Norte 15 Norte 0 -- -- 66
2018-02-16 15:00:00 16.2 8 Norte 15 Norte 0 -- -- 70
2018-02-16 14:00:00 16.6 8 Norte 15 Norte 0 -- -- 69
2018-02-16 13:00:00 16.7 8 Norte 16 Norte 0 -- -- 66
2018-02-16 12:00:00 15.1 8 Norte 13 Norte 0 -- -- 70
2018-02-16 11:00:00 16 5 Sur 13 Sur 0 -- -- 64
2018-02-16 10:00:00 12.8 0 Calma 4 Noroeste 0 -- -- 77
2018-02-16 09:00:00 8.2 0 Calma 5 Sur 0 -- -- 95
2018-02-16 08:00:00 8.8 0 Calma 11 Sur 0 -- -- 92
2018-02-16 07:00:00 8.8 4 Sudeste 6 Nordeste 0 -- -- 92
2018-02-16 06:00:00 8.9 2 Sudeste 6 Sur 0 -- -- 91
2018-02-16 05:00:00 8.9 4 Sudeste 8 Norte 0 -- -- 90
2018-02-16 04:00:00 10.6 2 Norte 7 Noroeste 0 -- -- 84
2018-02-16 03:00:00 9.2 3 Sudeste 9 Sudeste 0 -- -- 89
2018-02-16 02:00:00 9.3 5 Sur 9 Sur 0 -- -- 89
2018-02-16 01:00:00 11.3 3 Este 6 Noroeste 0 -- -- 77
2018-02-16 00:00:00 9 2 Sudeste 7 Nordeste 0 -- -- 86
2018-02-15 23:00:00 10.5 2 Sur 7 Este 0 -- -- 84
2018-02-15 22:00:00 11.6 2 Sur 9 Sur 0 -- -- 78
2018-02-15 21:00:00 12.6 6 Sur 14 Sur 0 -- -- 75
2018-02-15 20:00:00 13.5 9 Sur 16 Sur 0 -- -- 70
2018-02-15 19:00:00 14 11 Sur 15 Sur 0 -- -- 70
2018-02-15 18:00:00 17.2 9 Sur 17 Sur 0 -- -- 60
2018-02-15 17:00:00 20.4 5 Oeste 12 Sur 0 -- -- 50
2018-02-15 16:00:00 21 4 Sur 15 Sur 0 -- -- 49
2018-02-15 15:00:00 20.7 5 Nordeste 13 Oeste 0 -- -- 48
2018-02-15 14:00:00 20.3 6 Oeste 16 Noroeste 0 -- -- 47
2018-02-15 13:00:00 18.1 6 Noroeste 17 Noroeste 0 -- -- 53
2018-02-15 12:00:00 17 9 Oeste 20 Sudoeste 0 -- -- 56
2018-02-15 11:00:00 15.3 8 Oeste 22 Oeste 0 -- -- 62
2018-02-15 10:00:00 13.5 7 Oeste 27 Oeste 0 -- -- 65
2018-02-15 09:00:00 10.9 6 Sur 26 Sudoeste 0 -- -- 73
2018-02-15 08:00:00 10.4 13 Sudoeste 27 Sudoeste 0 -- -- 74
2018-02-15 07:00:00 10.4 3 Noroeste 26 Oeste 0 -- -- 74
2018-02-15 06:00:00 10.6 8 Sudoeste 23 Sudoeste 0 -- -- 73
2018-02-15 05:00:00 10.9 12 Sudoeste 26 Oeste 0 -- -- 72
2018-02-15 04:00:00 10.9 6 Sudoeste 22 Sudoeste 0 -- -- 72
2018-02-15 03:00:00 10.9 8 Sudoeste 22 Oeste 0 -- -- 71
2018-02-15 02:00:00 10.8 12 Sudoeste 22 Sudoeste 0 -- -- 71
2018-02-15 01:00:00 11 6 Noroeste 13 Oeste 0 -- -- 70
2018-02-15 00:00:00 11.4 10 Noroeste 26 Noroeste 0 -- -- 68
2018-02-14 23:00:00 11.3 12 Noroeste 27 Noroeste 0 -- -- 68
2018-02-14 22:00:00 11.3 8 Norte 21 Norte 0 -- -- 67
2018-02-14 21:00:00 11.9 10 Norte 24 Noroeste 0 -- -- 64
2018-02-14 20:00:00 11.8 10 Norte 23 Noroeste 0 -- -- 66
2018-02-14 19:00:00 12.5 8 Noroeste 19 Oeste 0 -- -- 63
2018-02-14 18:00:00 13.6 5 Noroeste 24 Oeste 0 -- -- 59
2018-02-14 17:00:00 14.8 12 Noroeste 36 Norte 0 -- -- 56
2018-02-14 16:00:00 14.5 18 Noroeste 36 Norte 0 -- -- 56
2018-02-14 15:00:00 14.3 21 Noroeste 35 Noroeste 0 -- -- 55
2018-02-14 14:00:00 15.3 16 Noroeste 36 Noroeste 0 -- -- 53
2018-02-14 13:00:00 14.9 15 Noroeste 32 Noroeste 0 -- -- 53
2018-02-14 12:00:00 13.5 13 Noroeste 32 Norte 0 -- -- 56
2018-02-14 11:00:00 12.9 11 Noroeste 26 Noroeste 0 -- -- 57
2018-02-14 10:00:00 11.7 10 Norte 30 Noroeste 0 -- -- 60
2018-02-14 09:00:00 10.7 10 Noroeste 34 Noroeste 0 -- -- 63
2018-02-14 08:00:00 10.5 10 Noroeste 34 Oeste 0 -- -- 63
2018-02-14 07:00:00 10.2 11 Noroeste 34 Oeste 0 -- -- 64
2018-02-14 06:00:00 9.8 8 Noroeste 32 Oeste 0 -- -- 66
2018-02-14 05:00:00 10 9 Oeste 27 Sur 0 -- -- 64
2018-02-14 04:00:00 9.7 11 Noroeste 28 Oeste 0 -- -- 65
2018-02-14 03:00:00 9.9 10 Noroeste 26 Noroeste 0 -- -- 63
2018-02-14 02:00:00 9.4 10 Oeste 29 Oeste 0 -- -- 62
2018-02-14 01:00:00 9.5 13 Oeste 30 Noroeste 0 -- -- 56
2018-02-14 00:00:00 9.5 4 Norte 24 Noroeste 0 -- -- 50
2018-02-13 23:00:00 9.9 9 Noroeste 30 Oeste 0 -- -- 46
2018-02-13 22:00:00 10.5 7 Oeste 29 Oeste 0 -- -- 43
2018-02-13 21:00:00 10.3 5 Oeste 23 Oeste 0 -- -- 45
2018-02-13 20:00:00 10.5 7 Noroeste 22 Noroeste 0 -- -- 49
2018-02-13 19:00:00 10.9 5 Noroeste 20 Noroeste 0 -- -- 46
2018-02-13 18:00:00 12.9 6 Noroeste 37 Norte 0 -- -- 38
2018-02-13 17:00:00 13.7 12 Oeste 34 Noroeste 0 -- -- 41
2018-02-13 16:00:00 13.6 13 Oeste 35 Norte 0 -- -- 42
2018-02-13 15:00:00 14 16 Oeste 36 Noroeste 0 -- -- 40
2018-02-13 14:00:00 13.1 8 Noroeste 33 Noroeste 0 -- -- 44
2018-02-13 13:00:00 12.3 12 Noroeste 34 Noroeste 0 -- -- 45
2018-02-13 12:00:00 11.7 8 Oeste 26 Oeste 0 -- -- 45
2018-02-13 11:00:00 10 7 Sudoeste 24 Sur 0 -- -- 46
2018-02-13 10:00:00 6.6 5 Sur 16 Sudoeste 0 -- -- 59
2018-02-13 09:00:00 2.8 5 Sudoeste 16 Sudoeste 0 -- -- 70
2018-02-13 08:00:00 1.3 4 Sur 9 Sur 0 -- -- 79
2018-02-13 07:00:00 1.7 6 Sur 11 Sur 0 -- -- 78
2018-02-13 06:00:00 3 4 Nordeste 11 Nordeste 0 -- -- 72
2018-02-13 05:00:00 3.1 3 Nordeste 10 Nordeste 0 -- -- 76
2018-02-13 04:00:00 3.4 5 Nordeste 12 Norte 0 -- -- 75
2018-02-13 03:00:00 2.9 5 Norte 10 Norte 0 -- -- 81
2018-02-13 02:00:00 2.5 4 Nordeste 8 Nordeste 0 -- -- 88
2018-02-13 01:00:00 4.1 6 Nordeste 13 Norte 0 -- -- 91
2018-02-13 00:00:00 4.5 6 Norte 14 Oeste 0 -- -- 99
2018-02-12 23:00:00 3.8 4 Norte 9 Norte 0 -- -- 100
2018-02-12 22:00:00 3.8 0 Calma 6 Nordeste 0 -- -- 98
2018-02-12 21:00:00 4.3 0 Calma 4 Norte 0 -- -- 97
2018-02-12 20:00:00 5.4 2 Este 8 Sur 0 -- -- 98
2018-02-12 19:00:00 6.4 4 Sur 13 Sur 0 -- -- 97
2018-02-12 18:00:00 6.9 7 Sur 23 Sur 0 -- -- 97
2018-02-12 17:00:00 7.3 10 Sur 18 Sur 0.4 -- -- 98
2018-02-12 16:00:00 7.3 6 Sur 15 Nordeste 0.6 -- -- 99
2018-02-12 15:00:00 7.3 6 Norte 10 Norte 2.2 -- -- 99
2018-02-12 14:00:00 8 4 Noroeste 13 Nordeste 4.2 -- -- 96
2018-02-12 13:00:00 9.9 6 Sudeste 19 Sudeste 0.4 -- -- 87
2018-02-12 12:00:00 10.9 3 Norte 6 Noroeste 0 -- -- 83
2018-02-12 11:00:00 11.3 0 Calma 13 Norte 0 -- -- 82
2018-02-12 10:00:00 11.7 6 Noroeste 14 Noroeste 0 -- -- 73
2018-02-12 09:00:00 11.4 5 Noroeste 15 Oeste 0 -- -- 75
2018-02-12 08:00:00 11.5 7 Noroeste 13 Norte 0 -- -- 75
2018-02-12 07:00:00 11.8 5 Norte 24 Noroeste 0 -- -- 73
2018-02-12 06:00:00 12 6 Noroeste 22 Noroeste 0 -- -- 71
2018-02-12 05:00:00 12.2 8 Oeste 26 Noroeste 0 -- -- 70
2018-02-12 04:00:00 11.8 12 Noroeste 29 Noroeste 0 -- -- 71
2018-02-12 03:00:00 11.9 7 Norte 25 Noroeste 0 -- -- 68
2018-02-12 02:00:00 11.5 8 Oeste 19 Oeste 0 -- -- 64
2018-02-12 01:00:00 12.5 10 Norte 19 Noroeste 0 -- -- 60
2018-02-12 00:00:00 13 6 Norte 19 Noroeste 0 -- -- 59
2018-02-11 23:00:00 12.5 6 Norte 13 Noroeste 0 -- -- 61
2018-02-11 22:00:00 12.3 5 Norte 14 Norte 0 -- -- 62
2018-02-11 21:00:00 12.5 7 Norte 14 Norte 0 -- -- 62
2018-02-11 20:00:00 13.3 8 Norte 23 Noroeste 0 -- -- 58
2018-02-11 19:00:00 14.2 10 Noroeste 25 Noroeste 0 -- -- 54
2018-02-11 18:00:00 16 11 Norte 27 Noroeste 0 -- -- 49
2018-02-11 17:00:00 16.4 6 Noroeste 27 Noroeste 0 -- -- 48
2018-02-11 16:00:00 17.1 17 Noroeste 34 Noroeste 0 -- -- 45
2018-02-11 15:00:00 16.9 8 Oeste 25 Noroeste 0 -- -- 48
2018-02-11 14:00:00 16.4 15 Oeste 28 Noroeste 0 -- -- 48
2018-02-11 13:00:00 13.7 9 Noroeste 25 Noroeste 0 -- -- 52
2018-02-11 12:00:00 12.6 8 Noroeste 25 Noroeste 0 -- -- 51
2018-02-11 11:00:00 9.5 8 Oeste 30 Sudoeste 0 -- -- 58
2018-02-11 10:00:00 8.6 5 Noroeste 21 Oeste 0 -- -- 58
2018-02-11 09:00:00 7 8 Noroeste 17 Oeste 0 -- -- 61
2018-02-11 08:00:00 4.5 3 Sur 19 Oeste 0 -- -- 69
2018-02-11 07:00:00 4.2 3 Sur 8 Sudeste 0 -- -- 70
2018-02-11 06:00:00 3.1 4 Sudeste 9 Sudeste 0 -- -- 75
2018-02-11 05:00:00 2.9 2 Sudeste 10 Oeste 0 -- -- 74
2018-02-11 04:00:00 3 2 Nordeste 6 Este 0 -- -- 73
2018-02-11 03:00:00 1.9 0 Calma 6 Este 0 -- -- 77
2018-02-11 02:00:00 4.2 4 Nordeste 9 Norte 0 -- -- 65
2018-02-11 01:00:00 4.3 5 Norte 9 Norte 0 -- -- 64
2018-02-11 00:00:00 4.4 4 Norte 19 Norte 0 -- -- 66
2018-02-10 23:00:00 6.2 12 Noroeste 23 Noroeste 0 -- -- 57
2018-02-10 22:00:00 6.8 13 Norte 22 Norte 0 -- -- 55
2018-02-10 21:00:00 6.4 10 Noroeste 28 Norte 0 -- -- 57
2018-02-10 20:00:00 7 15 Norte 24 Noroeste 0 -- -- 53
2018-02-10 19:00:00 6.9 11 Noroeste 19 Noroeste 0 -- -- 55
2018-02-10 18:00:00 7.8 8 Norte 16 Norte 0 -- -- 54
2018-02-10 17:00:00 8.5 12 Norte 27 Norte 0 -- -- 49
2018-02-10 16:00:00 8.1 9 Norte 24 Norte 0 -- -- 52
2018-02-10 15:00:00 7.5 12 Norte 37 Norte 0 -- -- 61
2018-02-10 14:00:00 8.9 20 Norte 45 Norte 0 -- -- 43
2018-02-10 13:00:00 8.8 20 Norte 42 Norte 0 -- -- 42
2018-02-10 12:00:00 8.6 18 Norte 34 Norte 0 -- -- 44
2018-02-10 11:00:00 8.4 14 Norte 32 Norte 0 -- -- 45
2018-02-10 10:00:00 7 17 Norte 39 Noroeste 0 -- -- 51
2018-02-10 09:00:00 6.1 19 Norte 37 Norte 0 -- -- 51
2018-02-10 08:00:00 5.9 13 Norte 32 Norte 0 -- -- 51
2018-02-10 07:00:00 5.5 12 Noroeste 26 Noroeste 0 -- -- 55
2018-02-10 06:00:00 3.9 8 Noroeste 20 Noroeste 0 -- -- 67
2018-02-10 05:00:00 3.1 7 Norte 16 Norte 0 -- -- 75
2018-02-10 04:00:00 4.5 9 Norte 14 Nordeste 0 -- -- 71
2018-02-10 03:00:00 4.8 8 Norte 15 Norte 0 -- -- 71
2018-02-10 02:00:00 5.3 7 Norte 27 Noroeste 0 -- -- 69
2018-02-10 01:00:00 5.3 10 Norte 18 Norte 0 -- -- 68
2018-02-10 00:00:00 6.1 9 Norte 19 Noroeste 0 -- -- 63
2018-02-09 23:00:00 6.3 8 Norte 15 Norte 0 -- -- 61
2018-02-09 22:00:00 7 9 Noroeste 19 Oeste 0 -- -- 56
2018-02-09 21:00:00 7.6 9 Noroeste 23 Noroeste 0 -- -- 52
2018-02-09 20:00:00 8 6 Noroeste 19 Noroeste 0 -- -- 51
2018-02-09 19:00:00 8.3 4 Norte 17 Noroeste 0 -- -- 50
2018-02-09 18:00:00 9.5 0 Calma 10 Sudoeste 0 -- -- 43
2018-02-09 17:00:00 11.2 5 Oeste 20 Oeste 0 -- -- 37
2018-02-09 16:00:00 11.1 7 Noroeste 23 Oeste 0 -- -- 38
2018-02-09 15:00:00 10.3 10 Noroeste 23 Norte 0 -- -- 38
2018-02-09 14:00:00 10 8 Oeste 18 Noroeste 0 -- -- 40
2018-02-09 13:00:00 9.2 10 Oeste 21 Oeste 0 -- -- 44
2018-02-09 12:00:00 7.8 8 Oeste 17 Oeste 0 -- -- 49
2018-02-09 11:00:00 6 8 Oeste 17 Oeste 0 -- -- 58
2018-02-09 10:00:00 3.5 5 Noroeste 14 Noroeste 0 -- -- 67
2018-02-09 09:00:00 0.4 3 Nordeste 6 Nordeste 0 -- -- 87
2018-02-09 08:00:00 0.1 0 Calma 5 Sur 0 -- -- 86
2018-02-09 07:00:00 0 0 Calma 3 Sudeste 0 -- -- 86
2018-02-09 06:00:00 1.8 0 Calma 5 Noroeste 0 -- -- 78
2018-02-09 05:00:00 4.1 5 Noroeste 15 Norte 0 -- -- 64
2018-02-09 04:00:00 4.8 8 Norte 20 Noroeste 0 -- -- 61
2018-02-09 03:00:00 5 8 Noroeste 15 Norte 0 -- -- 61
2018-02-09 02:00:00 5 3 Oeste 18 Noroeste 0 -- -- 72
2018-02-09 01:00:00 5.2 7 Noroeste 15 Noroeste 0 -- -- 61
2018-02-09 00:00:00 4.5 0 Calma 6 Nordeste 0 -- -- 70
2018-02-08 23:00:00 3.9 0 Calma 7 Este 0 -- -- 71
2018-02-08 22:00:00 4.1 3 Sur 6 Sudeste 0 -- -- 70
2018-02-08 21:00:00 5.1 0 Calma 19 Noroeste 0 -- -- 68
2018-02-08 20:00:00 6.3 12 Norte 24 Norte 0 -- -- 53
2018-02-08 19:00:00 5 8 Noroeste 12 Norte 0 -- -- 61
2018-02-08 18:00:00 7.3 4 Norte 13 Norte 0 -- -- 52
2018-02-08 17:00:00 9 8 Norte 16 Norte 0 -- -- 44
2018-02-08 16:00:00 10.7 6 Oeste 18 Oeste 0 -- -- 38
2018-02-08 15:00:00 10.7 8 Oeste 24 Oeste 0 -- -- 41
2018-02-08 14:00:00 8.6 9 Noroeste 19 Noroeste 0 -- -- 44
2018-02-08 13:00:00 7.4 9 Norte 21 Noroeste 0 -- -- 44
2018-02-08 12:00:00 6.7 12 Noroeste 23 Oeste 0 -- -- 47
2018-02-08 11:00:00 5.1 8 Noroeste 20 Oeste 0 -- -- 56
2018-02-08 10:00:00 4 6 Norte 10 Norte 0 -- -- 57
2018-02-08 09:00:00 0.2 2 Norte 5 Nordeste 0 -- -- 81
2018-02-08 08:00:00 0.1 2 Sudeste 12 Este 0 -- -- 83
2018-02-08 07:00:00 1.4 4 Nordeste 8 Este 0 -- -- 74
2018-02-08 06:00:00 0.5 2 Noroeste 9 Este 0 -- -- 85
2018-02-08 05:00:00 0.8 4 Norte 13 Noroeste 0 -- -- 82
2018-02-08 04:00:00 1.2 0 Calma 4 Sudoeste 0 -- -- 84
2018-02-08 03:00:00 3.4 0 Calma 2 Sudeste 0 -- -- 81
2018-02-08 02:00:00 4 0 Calma 5 Noroeste 0 -- -- 79
2018-02-08 01:00:00 4 2 Norte 4 Nordeste 0 -- -- 75
2018-02-08 00:00:00 4 0 Calma 3 Norte 0 -- -- 84
2018-02-07 23:00:00 4.8 3 Noroeste 12 Norte 0 -- -- 76
2018-02-07 22:00:00 4.9 2 Norte 4 Oeste 0 -- -- 86
2018-02-07 21:00:00 5.2 0 Calma -- -- 0 -- -- 87
2018-02-07 20:00:00 5.7 3 Sur 9 Sudeste 0 -- -- 79
2018-02-07 19:00:00 6.6 6 Sudeste 12 Sudeste 0 -- -- 71
2018-02-07 18:00:00 7.1 7 Sudeste 15 Sur 0 -- -- 69
2018-02-07 17:00:00 8.6 7 Sur 13 Sur 0 -- -- 63
2018-02-07 16:00:00 8.2 3 Sudoeste 8 Oeste 0 -- -- 57
2018-02-07 15:00:00 7.9 3 Nordeste 10 Noroeste 0 -- -- 63
2018-02-07 14:00:00 7.2 3 Norte 13 Nordeste 0 -- -- 63
2018-02-07 13:00:00 7.2 3 Noroeste 8 Noroeste 0 -- -- 68
2018-02-07 12:00:00 5.5 5 Noroeste 10 Noroeste 0 -- -- 69
2018-02-07 11:00:00 4.9 0 Calma 9 Oeste 0 -- -- 75
2018-02-07 10:00:00 4 2 Norte 8 Oeste 0 -- -- 81
2018-02-07 09:00:00 3.5 0 Calma 8 Sudoeste 0 -- -- 80
2018-02-07 08:00:00 2.9 3 Sudeste 7 Sudeste 0 -- -- 88
2018-02-07 07:00:00 3 3 Sudeste 13 Sudoeste 0 -- -- 90
2018-02-07 06:00:00 2.8 5 Sur 14 Sudoeste 0 -- -- 93
2018-02-07 05:00:00 2.8 4 Sudoeste 12 Sudoeste 0.2 -- -- 96
2018-02-07 04:00:00 3 2 Este 5 Este 0 -- -- 97
2018-02-07 03:00:00 2.8 2 Este 5 Este 0.2 -- -- 98
2018-02-07 02:00:00 2.7 3 Norte 15 Norte 0.4 -- -- 97
2018-02-07 01:00:00 2.9 8 Norte 15 Norte 0.8 -- -- 96
2018-02-07 00:00:00 3.1 7 Norte 19 Noroeste 0.8 -- -- 97
2018-02-06 23:00:00 3.2 8 Norte 18 Norte 0.4 -- -- 98
2018-02-06 22:00:00 3.3 6 Norte 13 Norte 0.6 -- -- 99
2018-02-06 21:00:00 3.4 5 Norte 17 Norte 1.2 -- -- 99
2018-02-06 20:00:00 3.9 4 Norte 20 Noroeste 0.4 -- -- 99
2018-02-06 19:00:00 4.5 11 Norte 19 Norte 0.2 -- -- 95
2018-02-06 18:00:00 4.4 8 Norte 13 Noroeste 0.2 -- -- 98
2018-02-06 17:00:00 4.8 6 Noroeste 18 Noroeste 0.2 -- -- 96
2018-02-06 16:00:00 4.8 6 Noroeste 16 Noroeste 0 -- -- 95
2018-02-06 15:00:00 4.6 9 Noroeste 19 Noroeste 0.2 -- -- 96
2018-02-06 14:00:00 4.6 10 Noroeste 18 Norte 1 -- -- 97
2018-02-06 13:00:00 4.2 9 Norte 17 Norte 0.2 -- -- 97
2018-02-06 12:00:00 4.7 5 Norte 18 Nordeste 0.2 -- -- 96
2018-02-06 11:00:00 4.8 6 Norte 17 Norte 0 -- -- 94
2018-02-06 10:00:00 4.7 6 Noroeste 12 Noroeste 0.4 -- -- 97
2018-02-06 09:00:00 3.9 4 Noroeste 10 Noroeste 0.2 -- -- 99
2018-02-06 08:00:00 3.7 6 Norte 10 Noroeste 0.2 -- -- 98
2018-02-06 07:00:00 3.7 4 Norte 12 Noroeste 0 -- -- 98
2018-02-06 06:00:00 3.7 4 Norte 11 Noroeste 0.2 -- -- 98
2018-02-06 05:00:00 3.7 3 Norte 11 Noroeste 0.8 -- -- 98
2018-02-06 04:00:00 4 4 Noroeste 12 Noroeste 0.4 -- -- 96
2018-02-06 03:00:00 4.1 6 Norte 11 Norte 0.2 -- -- 96
2018-02-06 02:00:00 3.9 3 Este 6 Nordeste 0.2 -- -- 97
2018-02-06 01:00:00 3.9 3 Norte 12 Noroeste 0.6 -- -- 98
2018-02-06 00:00:00 4 5 Noroeste 17 Noroeste 0.4 -- -- 98
2018-02-05 23:00:00 4.7 5 Noroeste 13 Noroeste 1.2 -- -- 98
2018-02-05 22:00:00 4.8 0 Calma 9 Sur 2.2 -- -- 96
2018-02-05 21:00:00 5 4 Sur 9 Sudeste 3.4 -- -- 97
2018-02-05 20:00:00 5.4 2 Sudoeste 14 Oeste 2.8 -- -- 94
2018-02-05 19:00:00 6.9 8 Oeste 20 Oeste 1 -- -- 93
2018-02-05 18:00:00 7.6 2 Este 10 Nordeste 0 -- -- 86
2018-02-05 17:00:00 8.6 0 Calma 9 Sudeste 0 -- -- 82
2018-02-05 16:00:00 8.3 3 Nordeste 11 Norte 0 -- -- 86
2018-02-05 15:00:00 8.7 5 Norte 11 Nordeste 0 -- -- 82
2018-02-05 14:00:00 8.8 0 Calma 8 Norte 0 -- -- 83
2018-02-05 13:00:00 7.5 2 Norte 14 Noroeste 0 -- -- 93
2018-02-05 12:00:00 6.9 7 Noroeste 15 Noroeste 0.2 -- -- 99
2018-02-05 11:00:00 6.1 4 Norte 10 Norte 0 -- -- 100
2018-02-05 10:00:00 6.1 2 Noroeste 6 Sudeste 0 -- -- 100
2018-02-05 09:00:00 4.9 0 Calma 8 Noroeste 0 -- -- 100
2018-02-05 08:00:00 4.6 0 Calma 7 Oeste 0 -- -- 100
2018-02-05 07:00:00 4.2 0 Calma 4 Sudoeste 0 -- -- 100
2018-02-05 06:00:00 4.7 0 Calma 4 Sudoeste 0 -- -- 100
2018-02-05 05:00:00 5 0 Calma 12 Oeste 0.8 -- -- 100
2018-02-05 04:00:00 5.5 0 Calma 5 Noroeste 0.2 -- -- 99
2018-02-05 03:00:00 5.3 0 Calma 2 Sudoeste 0.6 -- -- 99
2018-02-05 02:00:00 5.4 0 Calma 3 Sur 0 -- -- 98
2018-02-05 01:00:00 5.6 0 Calma 9 Sur 1 -- -- 96
2018-02-05 00:00:00 5.5 0 Calma 3 Norte 0 -- -- 95
2018-02-04 23:00:00 5.8 0 Calma 3 Noroeste 0 -- -- 92
2018-02-04 22:00:00 6.4 0 Calma 5 Nordeste 0 -- -- 90
2018-02-04 21:00:00 6.4 0 Calma 7 Nordeste 0 -- -- 93
2018-02-04 20:00:00 6.9 0 Calma 6 Nordeste 0 -- -- 91
2018-02-04 19:00:00 7.3 0 Calma 6 Sur 0 -- -- 87
2018-02-04 18:00:00 7.7 4 Sudeste 8 Sur 0 -- -- 83
2018-02-04 17:00:00 7.8 0 Calma 4 Nordeste 0 -- -- 81
2018-02-04 16:00:00 7.9 3 Norte 10 Norte 0 -- -- 83
2018-02-04 15:00:00 8.8 4 Nordeste 11 Norte 0 -- -- 72
2018-02-04 14:00:00 8.4 5 Norte 16 Norte 0 -- -- 72
2018-02-04 13:00:00 9 6 Este 13 Sur 0 -- -- 72
2018-02-04 12:00:00 7.8 3 Noroeste 13 Norte 0 -- -- 67
2018-02-04 11:00:00 6.8 6 Norte 10 Noroeste 0 -- -- 78
2018-02-04 10:00:00 6.4 0 Calma 12 Oeste 0 -- -- 73
2018-02-04 09:00:00 6.2 0 Calma 10 Oeste 0 -- -- 67
2018-02-04 08:00:00 7.1 5 Oeste 18 Sudoeste 0 -- -- 55
2018-02-04 07:00:00 7.5 9 Sudoeste 23 Sudoeste 0 -- -- 53
2018-02-04 06:00:00 7.6 12 Sudoeste 29 Sudoeste 0 -- -- 54
2018-02-04 05:00:00 7.2 12 Sudoeste 28 Sudoeste 0 -- -- 53
2018-02-04 04:00:00 7.4 15 Sudoeste 32 Sudoeste 0 -- -- 52
2018-02-04 03:00:00 7.5 16 Sudoeste 37 Oeste 0 -- -- 52
2018-02-04 02:00:00 7.5 15 Sudoeste 32 Sudoeste 0 -- -- 52
2018-02-04 01:00:00 8.4 6 Oeste 21 Oeste 0 -- -- 47
2018-02-04 00:00:00 8.6 6 Norte 23 Oeste 0 -- -- 47
2018-02-03 23:00:00 8 3 Oeste 21 Noroeste 0 -- -- 48
2018-02-03 22:00:00 8.1 5 Norte 17 Norte 0 -- -- 48
2018-02-03 21:00:00 8.7 11 Norte 31 Noroeste 0 -- -- 46
2018-02-03 20:00:00 9 6 Norte 22 Noroeste 0 -- -- 48
2018-02-03 19:00:00 9.3 7 Norte 23 Noroeste 0 -- -- 47
2018-02-03 18:00:00 10.4 5 Noroeste 26 Oeste 0 -- -- 44
2018-02-03 17:00:00 12 9 Oeste 25 Oeste 0 -- -- 41
2018-02-03 16:00:00 11.9 9 Noroeste 28 Noroeste 0 -- -- 42
2018-02-03 15:00:00 11.4 11 Noroeste 25 Noroeste 0 -- -- 43
2018-02-03 14:00:00 11 13 Noroeste 37 Noroeste 0 -- -- 46
2018-02-03 13:00:00 10.2 8 Noroeste 28 Noroeste 0 -- -- 46
2018-02-03 12:00:00 9 13 Noroeste 25 Oeste 0 -- -- 51
2018-02-03 11:00:00 6.8 10 Noroeste 33 Oeste 0 -- -- 57
2018-02-03 10:00:00 5 12 Noroeste 27 Oeste 0 -- -- 61
2018-02-03 09:00:00 3.6 7 Noroeste 19 Oeste 0 -- -- 62
2018-02-03 08:00:00 3.1 5 Noroeste 20 Noroeste 0 -- -- 64
2018-02-03 07:00:00 2.3 9 Norte 16 Noroeste 0 -- -- 69
2018-02-03 06:00:00 2.8 8 Norte 16 Noroeste 0 -- -- 66
2018-02-03 05:00:00 2.7 6 Noroeste 13 Oeste 0 -- -- 67
2018-02-03 04:00:00 2.5 6 Norte 13 Nordeste 0 -- -- 67
2018-02-03 03:00:00 2.3 7 Nordeste 12 Norte 0 -- -- 69
2018-02-03 02:00:00 0 0 Calma 5 Noroeste 0 -- -- 84
2018-02-03 01:00:00 2.9 3 Norte 17 Noroeste 0 -- -- 69
2018-02-03 00:00:00 3.7 7 Norte 15 Noroeste 0 -- -- 60
2018-02-02 23:00:00 4.5 10 Norte 21 Noroeste 0 -- -- 55
2018-02-02 22:00:00 5.4 13 Noroeste 34 Norte 0 -- -- 50
2018-02-02 21:00:00 6.2 20 Norte 44 Norte 0 -- -- 43
2018-02-02 20:00:00 5.6 14 Noroeste 22 Noroeste 0 -- -- 57
2018-02-02 19:00:00 4.3 8 Noroeste 14 Norte 0 -- -- 78
2018-02-02 18:00:00 6.1 5 Norte 10 Noroeste 0 -- -- 79
2018-02-02 17:00:00 6.7 6 Norte 14 Noroeste 0 -- -- 79
2018-02-02 16:00:00 6.4 7 Norte 13 Noroeste 0 -- -- 80
2018-02-02 15:00:00 5.6 6 Norte 15 Norte 0 -- -- 83
2018-02-02 14:00:00 4.6 6 Norte 14 Noroeste 0 -- -- 88
2018-02-02 13:00:00 3.7 3 Este 15 Norte 0.4 -- -- 93
2018-02-02 12:00:00 3.4 9 Noroeste 22 Norte 0.4 -- -- 93
2018-02-02 11:00:00 3.1 16 Noroeste 30 Norte 1 -- -- 93
2018-02-02 10:00:00 2.6 10 Noroeste 23 Noroeste 1.8 -- -- 96
2018-02-02 09:00:00 3.2 12 Norte 30 Nordeste 1.4 -- -- 95
2018-02-02 08:00:00 4.6 15 Norte 28 Nordeste 0 -- -- 81
2018-02-02 07:00:00 4.8 6 Norte 17 Nordeste 0 -- -- 81
2018-02-02 06:00:00 5 8 Norte 19 Norte 0.2 -- -- 90
2018-02-02 05:00:00 4.6 2 Norte 13 Noroeste 0 -- -- 94
2018-02-02 04:00:00 4.4 3 Noroeste 16 Norte 1.8 -- -- 98
2018-02-02 03:00:00 4.7 3 Noroeste 11 Nordeste 2.2 -- -- 98
2018-02-02 02:00:00 4.9 5 Sur 10 Sur 1.2 -- -- 93
2018-02-02 01:00:00 5 5 Sur 15 Norte 2.4 -- -- 92
2018-02-02 00:00:00 5.1 9 Nordeste 28 Noroeste 4.6 -- -- 98
2018-02-01 23:00:00 6.3 5 Sur 12 Nordeste 6.4 -- -- 97
2018-02-01 22:00:00 6.9 0 Calma 6 Oeste 3.6 -- -- 98
2018-02-01 21:00:00 7 7 Este 16 Nordeste 8.6 -- -- 95
2018-02-01 20:00:00 8.2 6 Nordeste 24 Norte 0.8 -- -- 92
2018-02-01 19:00:00 10.6 0 Calma 5 Norte 0 -- -- 77
2018-02-01 18:00:00 11.8 3 Nordeste 7 Noroeste 0 -- -- 63
2018-02-01 17:00:00 12.6 7 Norte 19 Noroeste 0 -- -- 61
2018-02-01 16:00:00 13 15 Norte 35 Noroeste 0 -- -- 58
2018-02-01 15:00:00 13.1 15 Norte 31 Noroeste 0 -- -- 57
2018-02-01 14:00:00 13.4 15 Noroeste 30 Noroeste 0 -- -- 55
2018-02-01 13:00:00 14.3 17 Noroeste 30 Noroeste 0 -- -- 50
2018-02-01 12:00:00 13.7 13 Oeste 30 Noroeste 0 -- -- 55
2018-02-01 11:00:00 11.8 10 Noroeste 20 Oeste 0 -- -- 65
2018-02-01 10:00:00 10.4 9 Oeste 18 Oeste 0 -- -- 71
2018-02-01 09:00:00 9 2 Sur 14 Oeste 0 -- -- 76
2018-02-01 08:00:00 7.8 3 Sudeste 19 Sur 0 -- -- 86
2018-02-01 07:00:00 7.7 13 Sur 19 Sur 0 -- -- 84
2018-02-01 06:00:00 7.9 3 Sudeste 10 Sur 0 -- -- 83
2018-02-01 05:00:00 7 4 Sudeste 9 Sur 0 -- -- 87
2018-02-01 04:00:00 8 2 Nordeste 20 Sudoeste 0 -- -- 83
2018-02-01 03:00:00 7.2 9 Sur 15 Sur 0 -- -- 96
2018-02-01 02:00:00 7.4 3 Sudoeste 10 Este 0 -- -- 94
2018-02-01 01:00:00 8.4 3 Sur 15 Sudoeste 0 -- -- 96
2018-02-01 00:00:00 7.9 3 Norte 6 Noroeste 0 -- -- 99
2018-01-31 23:00:00 7.9 0 Calma 9 Noroeste 0 -- -- 95
2018-01-31 22:00:00 6.7 0 Calma 5 Sur 0 -- -- 97
2018-01-31 21:00:00 7.5 3 Sur 9 Sur 0 -- -- 94
2018-01-31 20:00:00 8.8 4 Sudeste 21 Sur 0 -- -- 94
2018-01-31 19:00:00 9.8 10 Sur 24 Sudeste 0 -- -- 89
2018-01-31 18:00:00 10.6 13 Sudeste 25 Sur 0 -- -- 86
2018-01-31 17:00:00 12.6 14 Sur 22 Sudeste 0 -- -- 78
2018-01-31 16:00:00 14 4 Norte 13 Sudeste 0 -- -- 72
2018-01-31 15:00:00 13.2 7 Nordeste 15 Norte 0 -- -- 76
2018-01-31 14:00:00 13.1 7 Norte 12 Norte 0 -- -- 70
2018-01-31 13:00:00 12.6 5 Nordeste 10 Norte 0 -- -- 75
2018-01-31 12:00:00 11.2 2 Norte 9 Sudoeste 0 -- -- 83
2018-01-31 11:00:00 10.7 0 Calma 8 Oeste 0 -- -- 87
2018-01-31 10:00:00 8.1 0 Calma 3 Norte 0 -- -- 100
2018-01-31 09:00:00 6.3 0 Calma 5 Nordeste 0 -- -- 100
2018-01-31 08:00:00 6 0 Calma 5 Oeste 0 -- -- 100
2018-01-31 07:00:00 5 3 Sudeste 6 Sur 0 -- -- 100
2018-01-31 06:00:00 4.7 0 Calma 8 Sudeste 0 -- -- 100
2018-01-31 05:00:00 4.7 4 Sudeste 7 Sudeste 0 -- -- 100
2018-01-31 04:00:00 4.8 3 Sur 6 Sur 0 -- -- 100
2018-01-31 03:00:00 6.3 0 Calma 8 Oeste 0 -- -- 100
2018-01-31 02:00:00 5.7 0 Calma 6 Sur 0 -- -- 99
2018-01-31 01:00:00 6.3 4 Sudeste 8 Sur 0 -- -- 98
2018-01-31 00:00:00 6.6 4 Sur 8 Sur 0 -- -- 95
2018-01-30 23:00:00 8.2 0 Calma 16 Sudeste 0 -- -- 92
2018-01-30 22:00:00 9.1 9 Sur 21 Sudeste 0 -- -- 93
2018-01-30 21:00:00 9.1 10 Sudeste 22 Sudeste 0 -- -- 92
2018-01-30 20:00:00 9.3 13 Sudeste 23 Sur 0 -- -- 95
2018-01-30 19:00:00 9.5 10 Sur 17 Sudeste 0 -- -- 91
2018-01-30 18:00:00 10.5 10 Sudeste 18 Sur 0 -- -- 85
2018-01-30 17:00:00 12.1 11 Sur 16 Sur 0 -- -- 79
2018-01-30 16:00:00 12.1 5 Norte 14 Sudeste 0 -- -- 80
2018-01-30 15:00:00 12.5 2 Nordeste 13 Norte 0 -- -- 78
2018-01-30 14:00:00 12.5 7 Norte 12 Norte 0 -- -- 80
2018-01-30 13:00:00 11.7 7 Noroeste 13 Norte 0 -- -- 82
2018-01-30 12:00:00 11.4 6 Norte 11 Noroeste 0 -- -- 80
2018-01-30 11:00:00 10.2 2 Noroeste 5 Noroeste 0 -- -- 91
2018-01-30 10:00:00 7.4 0 Calma 6 Sur 0 -- -- 100
2018-01-30 09:00:00 3.9 3 Sudeste 6 Sur 0 -- -- 100
2018-01-30 08:00:00 3.6 3 Sur 6 Sur 0 -- -- 100
2018-01-30 07:00:00 4 3 Sudeste 9 Sudeste 0 -- -- 100
2018-01-30 06:00:00 4.3 4 Sudeste 7 Sudeste 0.2 -- -- 100
2018-01-30 05:00:00 4.4 2 Sudeste 8 Sudeste 0 -- -- 100
2018-01-30 04:00:00 4.6 3 Sur 8 Sur 0 -- -- 99
2018-01-30 03:00:00 5 3 Sudeste 7 Sur 0 -- -- 99
2018-01-30 02:00:00 5.1 4 Sudeste 8 Sur 0 -- -- 98
2018-01-30 01:00:00 5.5 5 Sur 8 Sudeste 0 -- -- 98
2018-01-30 00:00:00 5.6 2 Sudeste 13 Sur 0 -- -- 97
2018-01-29 23:00:00 6 5 Sudeste 9 Sudeste 0 -- -- 96
2018-01-29 22:00:00 6.2 5 Sudeste 12 Sur 0 -- -- 95
2018-01-29 21:00:00 6.7 7 Sur 12 Sur 0 -- -- 95
2018-01-29 20:00:00 7.6 6 Sudeste 10 Sudeste 0 -- -- 94
2018-01-29 19:00:00 8.8 5 Sur 12 Sur 0 -- -- 91
2018-01-29 18:00:00 10.6 8 Sur 10 Sur 0 -- -- 87
2018-01-29 17:00:00 13 2 Noroeste 7 Sur 0 -- -- 79
2018-01-29 16:00:00 13.1 3 Norte 11 Nordeste 0 -- -- 76
2018-01-29 15:00:00 12.4 5 Nordeste 13 Norte 0 -- -- 80
2018-01-29 14:00:00 12.3 5 Nordeste 12 Nordeste 0 -- -- 77
2018-01-29 13:00:00 11.7 5 Oeste 10 Oeste 0 -- -- 90
2018-01-29 12:00:00 10.5 6 Norte 9 Norte 0 -- -- 95
2018-01-29 11:00:00 10 3 Noroeste 6 Noroeste 0 -- -- 100
2018-01-29 10:00:00 9.7 0 Calma 7 Nordeste 0 -- -- 100
2018-01-29 09:00:00 9.5 3 Noroeste 6 Oeste 0 -- -- 100
2018-01-29 08:00:00 9.6 5 Norte 13 Norte 0 -- -- 100
2018-01-29 07:00:00 9.7 5 Norte 13 Nordeste 0 -- -- 100
2018-01-29 06:00:00 9.8 6 Norte 16 Norte 0 -- -- 100
2018-01-29 05:00:00 10.1 8 Norte 14 Norte 0 -- -- 100
2018-01-29 04:00:00 10.2 5 Sudeste 19 Nordeste 0 -- -- 100
2018-01-29 03:00:00 10.4 4 Oeste 21 Norte 0 -- -- 100
2018-01-29 02:00:00 10.5 8 Norte 19 Nordeste 0 -- -- 100
2018-01-29 01:00:00 10.8 5 Oeste 22 Nordeste 0 -- -- 100
2018-01-29 00:00:00 10.8 5 Sudeste 24 Sudeste 0 -- -- 100
2018-01-28 23:00:00 10.9 6 Sudeste 27 Sur 0 -- -- 100
2018-01-28 22:00:00 11.1 6 Sudeste 28 Sudeste 0 -- -- 100
2018-01-28 21:00:00 11.2 7 Sudoeste 26 Este 0 -- -- 100
2018-01-28 20:00:00 11.2 8 Sudeste 33 Sur 0 -- -- 100
2018-01-28 19:00:00 11.1 11 Sudeste 33 Sudeste 0 -- -- 100
2018-01-28 18:00:00 11.3 12 Sudeste 36 Sudeste 0 -- -- 100
2018-01-28 17:00:00 11.4 13 Sudeste 37 Sudeste 0.4 -- -- 100
2018-01-28 16:00:00 11.4 9 Sudeste 33 Sudeste 1 -- -- 100
2018-01-28 15:00:00 11.3 9 Sudeste 30 Sudeste 12.6 -- -- 100
2018-01-28 14:00:00 10.4 10 Sur 30 Sur 10.6 -- -- 100
2018-01-28 13:00:00 11.4 6 Sudeste 23 Sudeste 3 -- -- 100
2018-01-28 12:00:00 10.5 13 Este 26 Este 9.2 -- -- 100
2018-01-28 11:00:00 9.9 4 Nordeste 30 Sudeste 11.2 -- -- 100
2018-01-28 10:00:00 10.4 12 Este 34 Este 4.8 -- -- 100
2018-01-28 09:00:00 8.3 5 Norte 25 Sudeste 0.6 -- -- 100
2018-01-28 08:00:00 8.1 4 Nordeste 54 Sur 10.8 -- -- 100
2018-01-28 07:00:00 10.3 12 Sudeste 48 Sudeste 4.8 -- -- 100
2018-01-28 06:00:00 10.1 16 Sur 53 Sudeste 0.2 -- -- 100
2018-01-28 05:00:00 9.9 14 Sudoeste 45 Norte 0.2 -- -- 100
2018-01-28 04:00:00 9.8 14 Sudeste 42 Sudeste 0.8 -- -- 100
2018-01-28 03:00:00 9.8 12 Sudeste 44 Este 4 -- -- 100
2018-01-28 02:00:00 9.2 12 Norte 63 Norte 5.8 -- -- 100
2018-01-28 01:00:00 8.6 26 Norte 68 Norte 20.6 -- -- 100
2018-01-28 00:00:00 7.6 22 Norte 59 Norte 10.6 -- -- 100
2018-01-27 23:00:00 7.6 27 Norte 50 Norte 3.8 -- -- 99
2018-01-27 22:00:00 8 17 Norte 49 Norte 0.8 -- -- 88
2018-01-27 21:00:00 9.2 29 Norte 49 Norte 0 -- -- 70
2018-01-27 20:00:00 9.5 19 Norte 36 Norte 0 -- -- 71
2018-01-27 19:00:00 9.6 17 Norte 48 Norte 0 -- -- 61
2018-01-27 18:00:00 9.2 9 Norte 37 Norte 0 -- -- 64
2018-01-27 17:00:00 10 17 Norte 36 Nordeste 0 -- -- 60
2018-01-27 16:00:00 10.6 15 Norte 36 Norte 0 -- -- 57
2018-01-27 15:00:00 11 9 Norte 31 Norte 0 -- -- 52
2018-01-27 14:00:00 11 13 Norte 29 Nordeste 0 -- -- 48
2018-01-27 13:00:00 10.7 12 Norte 29 Norte 0 -- -- 44
2018-01-27 12:00:00 10.1 10 Norte 18 Noroeste 0 -- -- 47
2018-01-27 11:00:00 9.1 5 Noroeste 12 Norte 0 -- -- 53
2018-01-27 10:00:00 5.9 0 Calma 4 Noroeste 0 -- -- 71
2018-01-27 09:00:00 3.2 0 Calma 4 Este 0 -- -- 83
2018-01-27 08:00:00 3.8 0 Calma 4 Sudoeste 0 -- -- 80
2018-01-27 07:00:00 4.5 0 Calma 3 Sudeste 0 -- -- 73
2018-01-27 06:00:00 5.5 0 Calma 11 Norte 0 -- -- 72
2018-01-27 05:00:00 7.5 6 Norte 20 Norte 0 -- -- 58
2018-01-27 04:00:00 7.9 11 Norte 26 Norte 0 -- -- 58
2018-01-27 03:00:00 6.9 6 Norte 10 Noroeste 0 -- -- 70
2018-01-27 02:00:00 6.6 4 Norte 9 Noroeste 0 -- -- 76
2018-01-27 01:00:00 6.6 0 Calma 27 Norte 0 -- -- 81
2018-01-27 00:00:00 8.2 4 Norte 29 Norte 0 -- -- 65
2018-01-26 23:00:00 9.3 17 Norte 38 Norte 0 -- -- 52
2018-01-26 22:00:00 9.7 21 Norte 48 Norte 0 -- -- 48
2018-01-26 21:00:00 10 24 Norte 47 Nordeste 0 -- -- 47
2018-01-26 20:00:00 10.2 20 Norte 46 Norte 0 -- -- 50
2018-01-26 19:00:00 10.3 25 Norte 44 Norte 0 -- -- 47
2018-01-26 18:00:00 10.4 19 Norte 37 Noroeste 0 -- -- 50
2018-01-26 17:00:00 10.3 16 Norte 37 Norte 0 -- -- 55
2018-01-26 16:00:00 9.5 10 Noroeste 21 Noroeste 0.2 -- -- 72
2018-01-26 15:00:00 7.6 7 Noroeste 22 Norte 0.2 -- -- 80
2018-01-26 14:00:00 6.4 15 Norte 40 Norte 0.4 -- -- 85
2018-01-26 13:00:00 7.1 19 Noroeste 38 Norte 0 -- -- 79
2018-01-26 12:00:00 6.9 18 Noroeste 33 Noroeste 0.2 -- -- 81
2018-01-26 11:00:00 6.8 10 Noroeste 23 Noroeste 0.4 -- -- 88
2018-01-26 10:00:00 6 11 Noroeste 24 Noroeste 1.8 -- -- 85
2018-01-26 09:00:00 7.2 11 Noroeste 29 Noroeste 0 -- -- 70
2018-01-26 08:00:00 6.8 8 Noroeste 31 Oeste 0 -- -- 71
2018-01-26 07:00:00 7 12 Sudoeste 25 Sudoeste 0 -- -- 71
2018-01-26 06:00:00 7.9 5 Noroeste 27 Oeste 0 -- -- 71
2018-01-26 05:00:00 9.4 13 Noroeste 29 Noroeste 0 -- -- 68
2018-01-26 04:00:00 9.9 13 Norte 30 Noroeste 0 -- -- 72
2018-01-26 03:00:00 10.1 9 Noroeste 21 Noroeste 0 -- -- 74
2018-01-26 02:00:00 10.4 7 Norte 21 Oeste 0 -- -- 75
2018-01-26 01:00:00 11 5 Nordeste 12 Este 0 -- -- 70
2018-01-26 00:00:00 10.4 4 Sur 12 Sudoeste 0 -- -- 70
2018-01-25 23:00:00 11 3 Nordeste 14 Nordeste 0 -- -- 67
2018-01-25 22:00:00 11.2 4 Nordeste 20 Nordeste 0 -- -- 64
2018-01-25 21:00:00 11.7 5 Norte 12 Norte 0 -- -- 65
2018-01-25 20:00:00 11.1 3 Norte 9 Norte 0 -- -- 78
2018-01-25 19:00:00 11.4 2 Norte 12 Sur 0 -- -- 75
2018-01-25 18:00:00 13.8 6 Sur 8 Sur 0 -- -- 71
2018-01-25 17:00:00 16.4 5 Oeste 14 Noroeste 0 -- -- 61
2018-01-25 16:00:00 15.5 6 Norte 10 Norte 0 -- -- 62
2018-01-25 15:00:00 17 3 Sudoeste 15 Norte 0 -- -- 60
2018-01-25 14:00:00 16 4 Noroeste 9 Norte 0 -- -- 59
2018-01-25 13:00:00 14.7 3 Nordeste 9 Norte 0 -- -- 60
2018-01-25 12:00:00 13.4 5 Noroeste 10 Norte 0 -- -- 64
2018-01-25 11:00:00 12.1 4 Oeste 10 Noroeste 0 -- -- 68
2018-01-25 10:00:00 9 4 Este 6 Norte 0 -- -- 86
2018-01-25 09:00:00 3.5 0 Calma 5 Sudeste 0 -- -- 97
2018-01-25 08:00:00 4.1 5 Sur 7 Sudeste 0 -- -- 98
2018-01-25 07:00:00 3.2 2 Sur 5 Oeste 0 -- -- 95
2018-01-25 06:00:00 4.5 2 Sur 8 Sudeste 0 -- -- 94
2018-01-25 05:00:00 5.7 5 Sur 10 Sur 0 -- -- 99
2018-01-25 04:00:00 3.7 2 Sur 6 Sudoeste 0 -- -- 98
2018-01-25 03:00:00 3.9 2 Noroeste 8 Sur 0 -- -- 98
2018-01-25 02:00:00 4.5 0 Calma 4 Sudoeste 0 -- -- 98
2018-01-25 01:00:00 6.1 0 Calma 6 Sur 0 -- -- 98
2018-01-25 00:00:00 6.5 0 Calma 7 Sur 0 -- -- 99
2018-01-24 23:00:00 6.5 0 Calma 5 Sudoeste 0 -- -- 92
2018-01-24 22:00:00 9 3 Norte 7 Noroeste 0 -- -- 96
2018-01-24 21:00:00 9.1 2 Norte 5 Sudoeste 0 -- -- 90
2018-01-24 20:00:00 10.6 4 Sudeste 8 Sur 0 -- -- 78
2018-01-24 19:00:00 11.9 0 Calma 12 Sudoeste 0 -- -- 76
2018-01-24 18:00:00 14.1 2 Sudoeste 10 Sudoeste 0 -- -- 72
2018-01-24 17:00:00 15.8 9 Sur 16 Sur 0 -- -- 68
2018-01-24 16:00:00 17.5 5 Sudoeste 18 Sudeste 0 -- -- 65
2018-01-24 15:00:00 16.3 6 Noroeste 13 Norte 0 -- -- 69
2018-01-24 14:00:00 16.3 8 Norte 13 Norte 0 -- -- 67
2018-01-24 13:00:00 15.9 9 Norte 14 Norte 0 -- -- 61
2018-01-24 12:00:00 14.8 6 Norte 11 Noroeste 0 -- -- 64
2018-01-24 11:00:00 13.5 3 Norte 7 Norte 0 -- -- 70
2018-01-24 10:00:00 9.1 0 Calma 5 Sudeste 0 -- -- 91
2018-01-24 09:00:00 4.5 2 Sudeste 5 Sudeste 0 -- -- 94
2018-01-24 08:00:00 5.4 3 Sur 10 Sur 0 -- -- 92
2018-01-24 07:00:00 6 3 Sudeste 9 Sur 0 -- -- 91
2018-01-24 06:00:00 5.6 4 Sur 7 Sudeste 0 -- -- 92
2018-01-24 05:00:00 6.4 3 Sur 8 Sudeste 0 -- -- 91
2018-01-24 04:00:00 6.4 4 Sudeste 6 Sur 0 -- -- 91
2018-01-24 03:00:00 6.4 4 Sur 7 Sudeste 0 -- -- 89
2018-01-24 02:00:00 7.2 2 Sur 8 Sudeste 0 -- -- 83
2018-01-24 01:00:00 8.2 4 Sur 10 Sur 0 -- -- 83
2018-01-24 00:00:00 7.8 3 Sur 7 Sudeste 0 -- -- 82
2018-01-23 23:00:00 8.3 4 Sudeste 6 Sudeste 0 -- -- 79
2018-01-23 22:00:00 9.3 0 Calma 6 Sudeste 0 -- -- 74
2018-01-23 21:00:00 10.9 4 Sudeste 13 Sur 0 -- -- 70
2018-01-23 20:00:00 12.1 8 Sur 14 Sur 0 -- -- 69
2018-01-23 19:00:00 15.2 9 Sudeste 22 Sudeste 0 -- -- 59
2018-01-23 18:00:00 15.7 12 Sur 26 Sudeste 0 -- -- 59
2018-01-23 17:00:00 17.4 14 Sur 27 Sudeste 0 -- -- 55
2018-01-23 16:00:00 18.9 15 Sudeste 23 Sur 0 -- -- 46
2018-01-23 15:00:00 19.6 10 Sur 17 Sudeste 0 -- -- 43
2018-01-23 14:00:00 18.5 7 Nordeste 14 Norte 0 -- -- 44
2018-01-23 13:00:00 17.6 5 Norte 9 Norte 0 -- -- 45
2018-01-23 12:00:00 17.1 5 Noroeste 13 Oeste 0 -- -- 46
2018-01-23 11:00:00 15 7 Oeste 13 Oeste 0 -- -- 49
2018-01-23 10:00:00 12.2 2 Nordeste 6 Sur 0 -- -- 61
2018-01-23 09:00:00 6.6 4 Sur 6 Sur 0 -- -- 77
2018-01-23 08:00:00 5.5 0 Calma 8 Sur 0 -- -- 79
2018-01-23 07:00:00 6.4 2 Sudeste 9 Sur 0 -- -- 76
2018-01-23 06:00:00 8 4 Sur 10 Sudeste 0 -- -- 70
2018-01-23 05:00:00 8.3 5 Sur 11 Sur 0 -- -- 69
2018-01-23 04:00:00 8 5 Sur 9 Sur 0 -- -- 71
2018-01-23 03:00:00 9.6 4 Sudeste 9 Nordeste 0 -- -- 68
2018-01-23 02:00:00 10.3 3 Este 10 Sudoeste 0 -- -- 64
2018-01-23 01:00:00 13.4 4 Sudeste 10 Sur 0 -- -- 54
2018-01-23 00:00:00 13.5 3 Sudeste 10 Este 0 -- -- 55
2018-01-22 23:00:00 15.4 4 Norte 10 Nordeste 0 -- -- 50
2018-01-22 22:00:00 15.4 5 Este 11 Este 0 -- -- 48
2018-01-22 21:00:00 14 2 Nordeste 10 Sudeste 0 -- -- 54
2018-01-22 20:00:00 14 3 Sur 8 Este 0 -- -- 55
2018-01-22 19:00:00 13.2 2 Sur 6 Sur 0 -- -- 54
2018-01-22 18:00:00 19.2 2 Sudeste 8 Este 0 -- -- 40
2018-01-22 17:00:00 23.1 0 Calma 13 Oeste 0 -- -- 32
2018-01-22 16:00:00 23.5 5 Oeste 18 Oeste 0 -- -- 32
2018-01-22 15:00:00 23.5 9 Oeste 22 Oeste 0 -- -- 34
2018-01-22 14:00:00 22.8 6 Oeste 16 Noroeste 0 -- -- 35
2018-01-22 13:00:00 21.3 7 Noroeste 23 Oeste 0 -- -- 37
2018-01-22 12:00:00 19.9 12 Oeste 22 Oeste 0 -- -- 37
2018-01-22 11:00:00 18.6 9 Sudoeste 28 Oeste 0 -- -- 45
2018-01-22 10:00:00 15.3 8 Oeste 30 Oeste 0 -- -- 54
2018-01-22 09:00:00 13 5 Sudeste 11 Sur 0 -- -- 61
2018-01-22 08:00:00 13.1 8 Sudeste 17 Sudeste 0 -- -- 61
2018-01-22 07:00:00 13.1 9 Sur 18 Sur 0 -- -- 61
2018-01-22 06:00:00 13.2 9 Sur 21 Sudoeste 0 -- -- 62
2018-01-22 05:00:00 13 10 Sur 25 Sudoeste 0 -- -- 64
2018-01-22 04:00:00 12.9 10 Sur 19 Sur 0 -- -- 65
2018-01-22 03:00:00 12.1 3 Nordeste 13 Oeste 0 -- -- 69
2018-01-22 02:00:00 13.9 5 Sur 23 Sudoeste 0 -- -- 62
2018-01-22 01:00:00 14 6 Sudeste 13 Sudeste 0 -- -- 63
2018-01-22 00:00:00 13.9 3 Norte 9 Este 0 -- -- 63